TOM80J EGCC-LCPH
Flight info
| Callsign | TOM80J |
|---|---|
| Flight time | N/A |
| Altitude | 37000 |
| Route | SONEX UL975 DESIG L603 DOLAS DCT NAVPI DCT GISEB DCT TIVUN DCT ESAMA DCT OSBIT DCT TENLO DCT LAMSI DCT BARUG DCT SASAL DCT SOGMO DCT BABIT DCT KOTUS DCT IRGOR DCT OBAGI DCT NISVA DCT VIT DCT RODIP UN131 PIBOM DCT BELGI UN131 KULAR UT39 TOMBI M855 DASNI M32 TOBAL |
| Aircraft | B738/M-SDE2E3FGHIRWXY/LB1 |
Departure
| Time | N/A |
|---|---|
| Airport | Manchester Airport (EGCC) |
Arrival
| Time | 2026-04-27 17:00 |
|---|---|
| Airport | Paphos International Airport (LCPH) |
| Time | Latitude | Longitude | Altitude | Speed | Heading |
|---|---|---|---|---|---|
| 2026-04-27 16:29 | 36.18965 | 30.70044 | 35822 ft | 458 kts | 148° |
| 2026-04-27 16:30 | 36.13681 | 30.74446 | 34970 ft | 458 kts | 147° |
| 2026-04-27 16:30 | 36.08447 | 30.78795 | 34272 ft | 447 kts | 147° |
| 2026-04-27 16:31 | 36.00086 | 30.82717 | 33469 ft | 425 kts | 176° |
| 2026-04-27 16:31 | 35.94116 | 30.83094 | 32971 ft | 434 kts | 180° |
| 2026-04-27 16:32 | 35.88131 | 30.83397 | 32431 ft | 427 kts | 179° |
| 2026-04-27 16:32 | 35.85167 | 30.83566 | 32178 ft | 425 kts | 179° |
| 2026-04-27 16:33 | 35.79294 | 30.83921 | 31648 ft | 421 kts | 179° |
| 2026-04-27 16:33 | 35.76372 | 30.84101 | 31398 ft | 419 kts | 179° |
| 2026-04-27 16:33 | 35.73466 | 30.84281 | 31131 ft | 416 kts | 179° |
| 2026-04-27 16:33 | 35.70587 | 30.84458 | 30788 ft | 412 kts | 179° |
| 2026-04-27 16:34 | 35.67733 | 30.84633 | 30423 ft | 409 kts | 180° |
| 2026-04-27 16:34 | 35.64902 | 30.84879 | 30020 ft | 408 kts | 172° |
| 2026-04-27 16:34 | 35.62236 | 30.86059 | 29561 ft | 410 kts | 150° |
| 2026-04-27 16:34 | 35.60006 | 30.88210 | 29140 ft | 408 kts | 131° |
| 2026-04-27 16:35 | 35.58335 | 30.90994 | 28781 ft | 403 kts | 123° |
| 2026-04-27 16:35 | 35.56805 | 30.93868 | 28351 ft | 401 kts | 123° |
| 2026-04-27 16:35 | 35.53820 | 30.99588 | 27539 ft | 395 kts | 123° |
| 2026-04-27 16:36 | 35.52338 | 31.02409 | 27159 ft | 392 kts | 123° |
| 2026-04-27 16:36 | 35.50860 | 31.05200 | 26780 ft | 389 kts | 123° |
| 2026-04-27 16:36 | 35.49383 | 31.07971 | 26394 ft | 387 kts | 123° |
| 2026-04-27 16:36 | 35.47913 | 31.10716 | 26016 ft | 384 kts | 123° |
| 2026-04-27 16:37 | 35.46446 | 31.13449 | 25641 ft | 382 kts | 123° |
| 2026-04-27 16:37 | 35.44989 | 31.16157 | 25260 ft | 380 kts | 123° |
| 2026-04-27 16:37 | 35.43535 | 31.18855 | 24885 ft | 378 kts | 123° |
| 2026-04-27 16:37 | 35.42088 | 31.21538 | 24505 ft | 376 kts | 123° |
| 2026-04-27 16:38 | 35.40651 | 31.24203 | 24124 ft | 375 kts | 123° |
| 2026-04-27 16:38 | 35.39214 | 31.26862 | 23754 ft | 373 kts | 123° |
| 2026-04-27 16:38 | 35.37788 | 31.29502 | 23334 ft | 372 kts | 123° |
| 2026-04-27 16:38 | 35.36363 | 31.32135 | 22914 ft | 369 kts | 123° |
| 2026-04-27 16:39 | 35.34949 | 31.34749 | 22521 ft | 367 kts | 123° |
| 2026-04-27 16:39 | 35.33544 | 31.37342 | 22141 ft | 364 kts | 123° |
| 2026-04-27 16:39 | 35.32150 | 31.39914 | 21769 ft | 361 kts | 123° |
| 2026-04-27 16:39 | 35.30770 | 31.42459 | 21398 ft | 358 kts | 123° |
| 2026-04-27 16:40 | 35.29396 | 31.44989 | 21035 ft | 355 kts | 123° |
| 2026-04-27 16:40 | 35.28033 | 31.47498 | 20679 ft | 353 kts | 123° |
| 2026-04-27 16:40 | 35.26680 | 31.49988 | 20328 ft | 351 kts | 123° |
| 2026-04-27 16:40 | 35.25332 | 31.52466 | 19973 ft | 348 kts | 123° |
| 2026-04-27 16:41 | 35.23992 | 31.54926 | 19620 ft | 346 kts | 123° |
| 2026-04-27 16:41 | 35.22663 | 31.57368 | 19268 ft | 344 kts | 123° |
| 2026-04-27 16:41 | 35.21335 | 31.59804 | 18918 ft | 343 kts | 123° |
| 2026-04-27 16:41 | 35.20017 | 31.62220 | 18569 ft | 341 kts | 123° |
| 2026-04-27 16:42 | 35.18703 | 31.64627 | 18209 ft | 340 kts | 123° |
| 2026-04-27 16:42 | 35.17394 | 31.67023 | 17819 ft | 338 kts | 123° |
| 2026-04-27 16:42 | 35.16092 | 31.69406 | 17445 ft | 336 kts | 123° |
| 2026-04-27 16:42 | 35.14798 | 31.71771 | 17081 ft | 334 kts | 123° |
| 2026-04-27 16:43 | 35.13513 | 31.74119 | 16740 ft | 331 kts | 123° |
| 2026-04-27 16:43 | 35.12234 | 31.76454 | 16386 ft | 329 kts | 123° |
| 2026-04-27 16:43 | 35.10984 | 31.78734 | 16048 ft | 327 kts | 122° |
| 2026-04-27 16:43 | 35.09724 | 31.81033 | 15716 ft | 325 kts | 122° |
| 2026-04-27 16:44 | 35.08470 | 31.83318 | 15382 ft | 323 kts | 122° |
| 2026-04-27 16:44 | 35.07223 | 31.85588 | 15047 ft | 321 kts | 122° |
| 2026-04-27 16:44 | 35.05983 | 31.87846 | 14714 ft | 320 kts | 122° |
| 2026-04-27 16:44 | 35.04746 | 31.90096 | 14378 ft | 318 kts | 122° |
| 2026-04-27 16:45 | 35.03517 | 31.92330 | 14046 ft | 317 kts | 122° |
| 2026-04-27 16:45 | 35.02288 | 31.94562 | 13712 ft | 316 kts | 122° |
| 2026-04-27 16:45 | 35.01065 | 31.96782 | 13341 ft | 315 kts | 122° |
| 2026-04-27 16:45 | 34.99848 | 31.98988 | 12999 ft | 313 kts | 122° |
| 2026-04-27 16:46 | 34.98635 | 32.01184 | 12656 ft | 311 kts | 122° |
| 2026-04-27 16:46 | 34.97432 | 32.03364 | 12351 ft | 309 kts | 122° |
| 2026-04-27 16:46 | 34.96238 | 32.05529 | 12020 ft | 307 kts | 122° |
| 2026-04-27 16:46 | 34.95047 | 32.07687 | 11701 ft | 307 kts | 122° |
| 2026-04-27 16:47 | 34.93846 | 32.09859 | 11384 ft | 310 kts | 122° |
| 2026-04-27 16:47 | 34.92646 | 32.12029 | 11051 ft | 308 kts | 122° |
| 2026-04-27 16:47 | 34.91449 | 32.14190 | 10724 ft | 307 kts | 122° |
| 2026-04-27 16:47 | 34.90255 | 32.16340 | 10402 ft | 305 kts | 122° |
| 2026-04-27 16:48 | 34.89075 | 32.18460 | 10225 ft | 298 kts | 122° |
| 2026-04-27 16:48 | 34.87927 | 32.20526 | 10095 ft | 291 kts | 122° |
| 2026-04-27 16:48 | 34.86809 | 32.22539 | 9907 ft | 285 kts | 122° |
| 2026-04-27 16:49 | 34.84594 | 32.26527 | 9311 ft | 283 kts | 122° |
| 2026-04-27 16:49 | 34.83496 | 32.28502 | 9015 ft | 281 kts | 122° |
| 2026-04-27 16:49 | 34.82414 | 32.30444 | 8733 ft | 280 kts | 122° |
| 2026-04-27 16:49 | 34.81313 | 32.32420 | 8448 ft | 278 kts | 122° |
| 2026-04-27 16:50 | 34.80242 | 32.34340 | 8179 ft | 277 kts | 121° |
| 2026-04-27 16:50 | 34.79151 | 32.36297 | 7902 ft | 275 kts | 121° |
| 2026-04-27 16:50 | 34.78093 | 32.38195 | 7624 ft | 274 kts | 121° |
| 2026-04-27 16:50 | 34.77025 | 32.40111 | 7343 ft | 273 kts | 121° |
| 2026-04-27 16:51 | 34.75960 | 32.42019 | 7111 ft | 271 kts | 121° |
| 2026-04-27 16:51 | 34.74916 | 32.43890 | 6984 ft | 264 kts | 121° |
| 2026-04-27 16:51 | 34.73900 | 32.45708 | 6860 ft | 257 kts | 121° |
| 2026-04-27 16:51 | 34.72909 | 32.47480 | 6746 ft | 250 kts | 121° |
| 2026-04-27 16:52 | 34.71942 | 32.49205 | 6649 ft | 243 kts | 121° |
| 2026-04-27 16:52 | 34.70999 | 32.50881 | 6498 ft | 240 kts | 122° |
| 2026-04-27 16:52 | 34.69947 | 32.52467 | 6249 ft | 241 kts | 127° |
| 2026-04-27 16:52 | 34.68855 | 32.54003 | 6019 ft | 239 kts | 127° |
| 2026-04-27 16:53 | 34.68134 | 32.55013 | 5865 ft | 239 kts | 127° |
| 2026-04-27 16:53 | 34.67051 | 32.56536 | 5624 ft | 238 kts | 127° |
| 2026-04-27 16:53 | 34.65973 | 32.58063 | 5381 ft | 238 kts | 127° |
| 2026-04-27 16:53 | 34.64899 | 32.59591 | 5136 ft | 238 kts | 127° |
| 2026-04-27 16:54 | 34.63825 | 32.61120 | 4883 ft | 238 kts | 127° |
| 2026-04-27 16:54 | 34.62750 | 32.62651 | 4621 ft | 238 kts | 127° |
| 2026-04-27 16:54 | 34.61677 | 32.64179 | 4373 ft | 238 kts | 127° |
| 2026-04-27 16:54 | 34.60835 | 32.65857 | 4086 ft | 231 kts | 98° |
| 2026-04-27 16:55 | 34.61011 | 32.67711 | 3894 ft | 220 kts | 63° |
| 2026-04-27 16:55 | 34.61949 | 32.69092 | 3693 ft | 210 kts | 32° |
| 2026-04-27 16:55 | 34.63288 | 32.69661 | 3452 ft | 204 kts | 2° |
| 2026-04-27 16:55 | 34.64623 | 32.69320 | 3223 ft | 194 kts | 331° |
| 2026-04-27 16:56 | 34.65597 | 32.68271 | 3101 ft | 184 kts | 301° |
| 2026-04-27 16:56 | 34.66155 | 32.66912 | 2933 ft | 180 kts | 296° |
| 2026-04-27 16:56 | 34.66645 | 32.65529 | 2726 ft | 177 kts | 293° |
| 2026-04-27 16:56 | 34.67053 | 32.64145 | 2514 ft | 171 kts | 289° |
| 2026-04-27 16:57 | 34.67435 | 32.62803 | 2257 ft | 165 kts | 293° |
| 2026-04-27 16:57 | 34.67853 | 32.61540 | 2071 ft | 162 kts | 294° |
| 2026-04-27 16:57 | 34.68249 | 32.60269 | 1828 ft | 159 kts | 292° |
| 2026-04-27 16:57 | 34.68621 | 32.59041 | 1639 ft | 151 kts | 292° |
| 2026-04-27 16:58 | 34.68975 | 32.57869 | 1440 ft | 147 kts | 292° |
| 2026-04-27 16:58 | 34.69332 | 32.56690 | 1238 ft | 149 kts | 291° |
| 2026-04-27 16:58 | 34.69680 | 32.55529 | 1042 ft | 142 kts | 291° |
| 2026-04-27 16:58 | 34.70025 | 32.54383 | 815 ft | 146 kts | 292° |
| 2026-04-27 16:59 | 34.70372 | 32.53223 | 678 ft | 146 kts | 293° |
| 2026-04-27 16:59 | 34.70732 | 32.52070 | 502 ft | 145 kts | 292° |
| 2026-04-27 16:59 | 34.71062 | 32.50922 | 256 ft | 141 kts | 293° |
| 2026-04-27 16:59 | 34.71403 | 32.49838 | 70 ft | 134 kts | 294° |
| 2026-04-27 17:00 | 34.71846 | 32.48392 | 45 ft | 76 kts | 290° |
| 2026-04-27 17:00 | 34.71955 | 32.48039 | 45 ft | 14 kts | 292° |
| 2026-04-27 17:00 | 34.71983 | 32.47962 | 45 ft | 8 kts | 251° |
| 2026-04-27 17:01 | 34.71952 | 32.47977 | 45 ft | 6 kts | 95° |
| 2026-04-27 17:01 | 34.71950 | 32.48032 | 45 ft | 8 kts | 95° |
| 2026-04-27 17:01 | 34.71925 | 32.48131 | 45 ft | 16 kts | 109° |
| 2026-04-27 17:01 | 34.71882 | 32.48274 | 44 ft | 21 kts | 110° |
| 2026-04-27 17:02 | 34.71832 | 32.48407 | 45 ft | 14 kts | 143° |
| 2026-04-27 17:02 | 34.71741 | 32.48391 | 45 ft | 14 kts | 200° |
| 2026-04-27 17:02 | 34.71648 | 32.48349 | 45 ft | 14 kts | 200° |
| 2026-04-27 17:02 | 34.71558 | 32.48309 | 45 ft | 13 kts | 200° |
| 2026-04-27 17:03 | 34.71472 | 32.48271 | 45 ft | 13 kts | 200° |
| 2026-04-27 17:03 | 34.71399 | 32.48299 | 45 ft | 13 kts | 115° |
| 2026-04-27 17:03 | 34.71365 | 32.48414 | 43 ft | 15 kts | 110° |
| 2026-04-27 17:03 | 34.71335 | 32.48513 | 43 ft | 9 kts | 114° |
| 2026-04-27 17:04 | 34.71285 | 32.48551 | 45 ft | 8 kts | 156° |
| 2026-04-27 17:04 | 34.71270 | 32.48559 | 45 ft | 0 kts | 155° |